createdAt,value
2017-10-26T00:00:57.158Z,34.77
2017-10-26T00:03:25.982Z,41.73
2017-10-26T00:05:54.718Z,26.50
2017-10-26T00:08:22.726Z,30.73
2017-10-26T00:10:50.854Z,49.63
2017-10-26T00:13:18.854Z,36.10
2017-10-26T00:15:47.335Z,34.97
2017-10-26T00:18:16.152Z,33.90
2017-10-26T00:20:44.824Z,30.23
2017-10-26T00:23:13.602Z,21.63
2017-10-26T00:25:41.734Z,35.83
2017-10-26T00:28:10.479Z,45.03
2017-10-26T00:30:38.948Z,36.77
2017-10-26T00:33:07.677Z,24.77
2017-10-26T00:35:36.498Z,39.63
2017-10-26T00:38:05.056Z,34.83
2017-10-26T00:40:34.002Z,37.53
2017-10-26T00:43:02.193Z,30.70
2017-10-26T00:45:30.740Z,35.70
2017-10-26T00:47:59.599Z,36.23
2017-10-26T00:50:28.775Z,30.97
2017-10-26T00:52:57.476Z,33.80
2017-10-26T00:55:25.658Z,46.53
2017-10-26T00:57:54.506Z,28.73
2017-10-26T01:00:22.751Z,25.77
2017-10-26T01:02:51.395Z,34.30
2017-10-26T01:05:19.931Z,35.20
2017-10-26T01:07:48.674Z,23.43
2017-10-26T01:10:16.866Z,26.10
2017-10-26T01:12:45.593Z,28.10
2017-10-26T01:15:13.646Z,35.20
2017-10-26T01:17:42.183Z,33.97
2017-10-26T01:20:10.256Z,32.97
2017-10-26T01:22:38.843Z,34.87
2017-10-26T01:25:07.119Z,31.17
2017-10-26T01:27:35.127Z,30.43
2017-10-26T01:30:04.004Z,30.53
2017-10-26T01:32:33.321Z,35.53
2017-10-26T01:35:02.841Z,34.63
2017-10-26T01:37:31.352Z,42.53
2017-10-26T01:40:00.407Z,26.40
2017-10-26T01:42:29.270Z,34.87
2017-10-26T01:44:57.547Z,36.43
2017-10-26T01:47:26.296Z,38.23
2017-10-26T01:49:54.404Z,31.20
2017-10-26T01:52:26.990Z,33.43
2017-10-26T01:54:56.012Z,33.00
2017-10-26T01:57:25.058Z,34.20
2017-10-26T01:59:53.146Z,27.03
2017-10-26T02:02:21.359Z,33.53
2017-10-26T02:04:50.223Z,33.90
2017-10-26T02:07:19.246Z,32.10
2017-10-26T02:09:48.763Z,31.53
2017-10-26T02:12:16.956Z,30.40
2017-10-26T02:14:45.219Z,37.43
2017-10-26T02:17:14.098Z,35.87
2017-10-26T02:19:43.397Z,34.37
2017-10-26T02:22:12.308Z,26.67
2017-10-26T02:24:41.052Z,36.83
2017-10-26T02:27:09.052Z,35.80
2017-10-26T02:29:49.442Z,26.10
2017-10-26T02:45:17.684Z,36.70
2017-10-26T02:47:46.871Z,32.80
2017-10-26T02:50:16.414Z,36.07
2017-10-26T02:52:45.009Z,40.90
2017-10-26T02:55:13.229Z,34.43
2017-10-26T02:57:41.295Z,44.47
2017-10-26T03:00:10.414Z,46.67
2017-10-26T03:02:39.944Z,46.67
2017-10-26T03:05:08.467Z,42.87
2017-10-26T03:07:37.198Z,49.50
2017-10-26T03:10:06.398Z,48.53
2017-10-26T03:12:36.503Z,38.00
2017-10-26T03:15:06.027Z,53.50
2017-10-26T03:17:34.775Z,92.80
2017-10-26T03:20:02.902Z,65.70
2017-10-26T03:22:31.559Z,63.40
2017-10-26T03:25:00.351Z,70.50
2017-10-26T03:27:29.195Z,67.50
2017-10-26T03:29:57.415Z,78.23
2017-10-26T03:32:26.159Z,72.97
2017-10-26T03:34:54.238Z,81.27
2017-10-26T03:37:22.422Z,84.67
2017-10-26T03:39:50.432Z,87.77
2017-10-26T03:42:19.191Z,83.07
2017-10-26T03:44:47.344Z,68.37
2017-10-26T03:47:15.451Z,68.73
2017-10-26T03:49:43.475Z,85.67
2017-10-26T03:52:11.575Z,73.23
2017-10-26T03:54:39.618Z,77.13
2017-10-26T03:57:07.690Z,78.40
2017-10-26T03:59:35.870Z,91.93
2017-10-26T04:02:03.923Z,88.87
2017-10-26T04:04:31.883Z,65.30
2017-10-26T04:07:00.802Z,67.73
2017-10-26T04:09:28.859Z,76.60
2017-10-26T04:11:57.022Z,56.07
2017-10-26T04:14:25.986Z,64.33
2017-10-26T04:16:53.959Z,68.17
2017-10-26T04:19:21.987Z,64.27
2017-10-26T04:21:50.113Z,62.73
2017-10-26T04:24:18.348Z,76.53
2017-10-26T04:26:46.571Z,51.83
2017-10-26T04:29:14.704Z,63.20
2017-10-26T04:31:43.035Z,55.57
2017-10-26T04:34:11.822Z,78.60
2017-10-26T04:36:40.722Z,77.40
2017-10-26T04:39:09.590Z,61.30
2017-10-26T04:41:37.623Z,61.73
2017-10-26T04:44:05.788Z,56.97
2017-10-26T04:46:34.464Z,63.27
2017-10-26T04:49:02.658Z,62.27
2017-10-26T04:51:30.803Z,57.83
2017-10-26T04:54:00.455Z,63.07
2017-10-26T04:56:28.482Z,52.00
2017-10-26T04:58:58.128Z,49.53
2017-10-26T05:01:26.643Z,64.37
2017-10-26T05:03:54.659Z,61.93
2017-10-26T05:06:22.930Z,51.73
2017-10-26T05:08:52.476Z,60.80
2017-10-26T05:11:20.962Z,69.07
2017-10-26T05:13:49.568Z,49.63
2017-10-26T05:16:18.306Z,51.80
2017-10-26T05:18:46.330Z,53.60
2017-10-26T05:21:14.435Z,43.20
2017-10-26T05:23:43.848Z,42.60
2017-10-26T05:26:12.757Z,54.33
2017-10-26T05:28:41.412Z,39.83
2017-10-26T05:31:10.151Z,55.57
2017-10-26T05:33:38.279Z,41.97
2017-10-26T05:36:07.138Z,44.10
2017-10-26T05:38:35.594Z,47.90
2017-10-26T05:41:04.243Z,33.90
2017-10-26T05:43:33.160Z,32.20
2017-10-26T05:46:01.994Z,55.57
2017-10-26T05:48:30.058Z,32.13
2017-10-26T05:50:58.369Z,32.33
2017-10-26T05:53:27.115Z,46.43
2017-10-26T05:55:55.648Z,31.20
2017-10-26T05:58:25.371Z,30.03
2017-10-26T06:00:53.548Z,46.17
2017-10-26T06:03:21.558Z,33.97
2017-10-26T06:05:49.675Z,33.13
2017-10-26T06:08:18.466Z,39.60
2017-10-26T06:10:47.859Z,35.73
2017-10-26T06:13:17.139Z,30.00
2017-10-26T06:15:45.782Z,48.63
2017-10-26T06:18:13.850Z,40.63
2017-10-26T06:20:41.982Z,28.93
2017-10-26T06:23:10.016Z,26.87
2017-10-26T06:25:38.597Z,37.63
2017-10-26T06:28:06.741Z,22.03
2017-10-26T06:30:35.996Z,43.67
2017-10-26T06:33:04.047Z,27.53
2017-10-26T06:35:32.295Z,27.40
2017-10-26T06:38:00.325Z,28.07
2017-10-26T06:40:28.810Z,31.97
2017-10-26T06:42:57.052Z,33.57
2017-10-26T06:45:25.243Z,25.60
2017-10-26T06:47:53.367Z,27.33
2017-10-26T06:50:22.371Z,25.37
2017-10-26T06:52:50.570Z,24.83
2017-10-26T06:55:19.454Z,28.97
2017-10-26T06:57:47.706Z,23.53
2017-10-26T07:00:16.967Z,23.80
2017-10-26T07:02:45.018Z,34.27
2017-10-26T07:05:13.296Z,20.20
2017-10-26T07:07:41.358Z,30.33
2017-10-26T07:10:09.836Z,25.20
2017-10-26T07:12:38.701Z,39.43
2017-10-26T07:15:07.486Z,42.80
2017-10-26T07:17:36.250Z,32.63
2017-10-26T07:20:04.511Z,23.97
2017-10-26T07:22:32.536Z,33.10
2017-10-26T07:25:01.875Z,38.63
2017-10-26T07:27:30.846Z,43.83
2017-10-26T07:29:58.881Z,40.80
2017-10-26T07:32:28.245Z,23.07
2017-10-26T07:34:56.427Z,28.67
2017-10-26T07:37:24.554Z,29.77
2017-10-26T07:39:53.366Z,29.87
2017-10-26T07:42:21.507Z,54.07
2017-10-26T07:44:50.794Z,33.93
2017-10-26T07:47:19.415Z,36.20
2017-10-26T07:49:48.332Z,30.17
2017-10-26T07:52:16.351Z,35.90
2017-10-26T07:54:44.614Z,32.07
2017-10-26T07:57:12.895Z,25.23
2017-10-26T07:59:43.018Z,36.87
2017-10-26T08:02:11.050Z,34.63
2017-10-26T08:04:39.218Z,28.20
2017-10-26T08:07:07.290Z,25.10
2017-10-26T08:09:35.382Z,32.73
2017-10-26T08:12:03.555Z,26.17
2017-10-26T08:14:31.650Z,29.47
2017-10-26T08:16:59.699Z,22.53
2017-10-26T08:19:27.938Z,39.80
2017-10-26T08:21:56.972Z,30.77
2017-10-26T08:24:25.019Z,32.87
2017-10-26T08:26:53.208Z,29.27
2017-10-26T08:29:21.208Z,25.87
2017-10-26T08:31:49.243Z,18.83
2017-10-26T08:34:17.365Z,21.33
2017-10-26T08:36:46.363Z,27.53
2017-10-26T08:39:14.410Z,24.93
2017-10-26T08:41:43.056Z,29.40
2017-10-26T08:44:11.060Z,25.40
2017-10-26T08:46:39.047Z,20.03
2017-10-26T08:49:07.909Z,21.37
2017-10-26T08:51:36.067Z,37.67
2017-10-26T08:54:04.139Z,25.77
2017-10-26T08:56:32.464Z,23.70
2017-10-26T08:59:00.600Z,24.40
2017-10-26T09:01:29.171Z,34.73
2017-10-26T09:03:58.180Z,31.20
2017-10-26T09:06:26.735Z,27.10
2017-10-26T09:08:55.487Z,27.83
2017-10-26T09:11:23.894Z,33.60
2017-10-26T09:13:52.074Z,25.70
2017-10-26T09:16:20.821Z,18.83
2017-10-26T09:18:49.174Z,27.37
2017-10-26T09:21:17.410Z,31.57
2017-10-26T09:23:45.786Z,26.40
2017-10-26T09:26:14.114Z,23.67
2017-10-26T09:28:42.258Z,38.13
2017-10-26T09:31:11.063Z,21.93
2017-10-26T09:33:40.027Z,25.20
2017-10-26T09:36:08.465Z,30.10
2017-10-26T09:38:36.640Z,22.77
2017-10-26T09:41:04.923Z,29.50
2017-10-26T09:43:33.074Z,31.93
2017-10-26T09:46:01.180Z,28.73
2017-10-26T09:48:29.431Z,36.87
2017-10-26T09:50:57.497Z,58.20
2017-10-26T09:53:25.755Z,58.33
2017-10-26T09:55:54.861Z,39.87
2017-10-26T09:58:23.886Z,48.63
2017-10-26T10:00:52.019Z,37.77
2017-10-26T10:03:20.980Z,54.47
2017-10-26T10:05:49.118Z,44.97
2017-10-26T10:08:17.401Z,46.43
2017-10-26T10:10:45.575Z,34.37
2017-10-26T10:13:13.700Z,43.17
2017-10-26T10:15:41.856Z,35.23
2017-10-26T10:18:10.232Z,36.73
2017-10-26T10:20:38.458Z,35.47
2017-10-26T10:23:07.315Z,41.70
2017-10-26T10:25:35.566Z,38.57
2017-10-26T10:28:03.682Z,49.07
2017-10-26T10:30:32.524Z,33.07
2017-10-26T10:33:00.943Z,34.47
2017-10-26T10:35:29.188Z,35.00
2017-10-26T10:37:57.302Z,35.37
2017-10-26T10:40:25.762Z,43.20
2017-10-26T10:42:53.998Z,32.77
2017-10-26T10:45:22.241Z,38.20
2017-10-26T10:47:50.664Z,24.93
2017-10-26T10:50:18.839Z,25.70
2017-10-26T10:52:46.944Z,25.90
2017-10-26T10:55:15.108Z,20.30
2017-10-26T10:57:43.404Z,26.37
2017-10-26T11:00:17.554Z,27.80
2017-10-26T11:02:46.970Z,27.47
2017-10-26T11:05:15.131Z,25.13
2017-10-26T11:07:44.255Z,29.73
2017-10-26T11:10:12.456Z,137.03
2017-10-26T11:12:40.515Z,24.73
2017-10-26T11:15:08.781Z,33.43
2017-10-26T11:17:37.060Z,48.03
2017-10-26T11:20:05.210Z,32.13
2017-10-26T11:22:34.437Z,33.00
2017-10-26T11:25:02.755Z,232.80
2017-10-26T11:27:31.146Z,31.57
2017-10-26T11:30:00.007Z,39.67
2017-10-26T11:32:28.646Z,28.53
2017-10-26T11:34:58.662Z,29.03
2017-10-26T11:37:27.651Z,22.53
2017-10-26T11:39:56.612Z,34.20
2017-10-26T11:42:24.856Z,26.00
2017-10-26T11:44:53.138Z,34.50
2017-10-26T11:47:22.076Z,33.67
2017-10-26T11:49:50.624Z,23.27
2017-10-26T11:52:20.165Z,25.90
2017-10-26T11:54:49.088Z,17.97
2017-10-26T11:57:17.624Z,26.80
2017-10-26T11:59:45.884Z,21.13
2017-10-26T12:02:14.380Z,18.73
2017-10-26T12:04:42.648Z,23.87
2017-10-26T12:07:11.483Z,15.83
2017-10-26T12:09:40.971Z,17.60
2017-10-26T12:12:09.592Z,17.17
2017-10-26T12:14:38.637Z,21.40
2017-10-26T12:17:06.744Z,16.80
2017-10-26T12:19:36.388Z,16.60
2017-10-26T12:22:04.705Z,16.53
2017-10-26T12:24:33.586Z,21.90
2017-10-26T12:27:01.723Z,24.33
2017-10-26T12:29:30.025Z,21.93
2017-10-26T12:31:58.162Z,19.47
2017-10-26T12:34:27.785Z,22.47
2017-10-26T12:36:56.125Z,21.57
2017-10-26T12:39:24.714Z,17.70
2017-10-26T12:41:54.389Z,23.83
2017-10-26T12:44:27.563Z,22.03
2017-10-26T13:12:58.582Z,17.50
2017-10-26T13:15:26.890Z,19.87
2017-10-26T13:17:55.202Z,22.80
2017-10-26T13:20:24.346Z,23.47
2017-10-26T13:22:52.536Z,20.90
2017-10-26T13:25:21.363Z,19.43
2017-10-26T13:27:49.541Z,15.63
2017-10-26T13:30:17.556Z,18.07
2017-10-26T13:32:45.572Z,17.13
2017-10-26T13:35:14.240Z,23.27
2017-10-26T13:37:42.851Z,16.03
2017-10-26T13:40:10.870Z,15.03
2017-10-26T13:42:39.155Z,24.30
2017-10-26T13:45:07.195Z,18.40
2017-10-26T13:47:35.960Z,22.03
2017-10-26T13:50:04.780Z,21.80
2017-10-26T13:52:34.366Z,16.23
2017-10-26T13:55:02.474Z,20.83
2017-10-26T13:57:31.358Z,18.03
2017-10-26T14:00:00.103Z,17.00
2017-10-26T14:02:28.355Z,19.90
2017-10-26T14:04:57.304Z,18.77
2017-10-26T14:07:26.657Z,22.90
2017-10-26T14:09:54.722Z,20.27
2017-10-26T14:12:23.391Z,14.13
2017-10-26T14:14:51.449Z,18.57
2017-10-26T14:17:20.234Z,22.20
2017-10-26T14:19:49.690Z,20.93
2017-10-26T14:22:18.221Z,20.20
2017-10-26T14:24:47.326Z,19.27
2017-10-26T14:27:16.717Z,19.40
2017-10-26T14:29:45.537Z,15.63
2017-10-26T14:32:13.541Z,20.03
2017-10-26T14:34:42.299Z,14.23
2017-10-26T14:37:10.502Z,24.13
2017-10-26T14:39:38.901Z,22.43
2017-10-26T14:42:07.635Z,15.30
2017-10-26T14:44:36.593Z,26.13
2017-10-26T14:47:04.968Z,27.67
2017-10-26T14:49:33.887Z,23.10
2017-10-26T14:52:02.263Z,14.80
2017-10-26T14:54:31.324Z,21.03
2017-10-26T14:57:00.949Z,17.13
2017-10-26T14:59:29.806Z,16.80
2017-10-26T15:01:58.172Z,17.47
2017-10-26T15:04:26.632Z,25.73
2017-10-26T15:06:55.608Z,21.80
2017-10-26T15:09:24.488Z,25.13
2017-10-26T15:11:53.479Z,22.90
2017-10-26T15:14:22.344Z,26.53
2017-10-26T15:16:51.428Z,21.80
2017-10-26T15:19:19.916Z,16.20
2017-10-26T15:21:49.389Z,19.50
2017-10-26T15:24:18.238Z,18.20
2017-10-26T15:26:47.912Z,22.37
2017-10-26T15:29:16.622Z,15.50
2017-10-26T15:31:46.412Z,24.13
2017-10-26T15:34:14.873Z,15.23
2017-10-26T15:36:43.610Z,17.77
2017-10-26T15:39:13.554Z,17.80
2017-10-26T15:41:42.830Z,17.63
2017-10-26T15:44:11.940Z,16.93
2017-10-26T15:46:40.261Z,23.63
2017-10-26T15:49:08.694Z,22.23
2017-10-26T15:51:37.792Z,16.70
2017-10-26T15:54:06.940Z,18.63
2017-10-26T15:56:35.366Z,17.37
2017-10-26T15:59:04.364Z,25.37
2017-10-26T16:01:33.459Z,17.97
2017-10-26T16:04:01.837Z,20.93
2017-10-26T16:06:29.954Z,21.80
2017-10-26T16:08:58.162Z,23.23
2017-10-26T16:11:26.375Z,20.93
2017-10-26T16:13:54.427Z,23.40
2017-10-26T16:16:22.468Z,22.20
2017-10-26T16:18:50.658Z,18.30
2017-10-26T16:21:18.659Z,24.83
2017-10-26T16:23:46.648Z,16.27
2017-10-26T16:26:14.824Z,25.80
2017-10-26T16:28:42.844Z,18.17
2017-10-26T16:31:10.876Z,31.50
2017-10-26T16:33:39.755Z,19.90
2017-10-26T16:36:07.851Z,24.33
2017-10-26T16:38:36.613Z,23.23
2017-10-26T16:41:04.749Z,18.97
2017-10-26T16:43:32.763Z,21.93
2017-10-26T16:46:00.803Z,20.33
2017-10-26T16:48:28.928Z,22.83
2017-10-26T16:50:57.672Z,19.47
2017-10-26T16:53:25.701Z,21.80
2017-10-26T16:55:54.644Z,16.20
2017-10-26T16:58:23.435Z,17.17
2017-10-26T17:00:51.772Z,23.17
2017-10-26T17:03:20.724Z,20.83
2017-10-26T17:05:48.772Z,19.43
2017-10-26T17:08:16.783Z,23.50
2017-10-26T17:10:46.336Z,20.10
2017-10-26T17:13:14.887Z,20.20
2017-10-26T17:15:44.189Z,17.37
2017-10-26T17:18:13.069Z,21.53
2017-10-26T17:20:41.874Z,18.03
2017-10-26T17:23:10.628Z,16.77
2017-10-26T17:25:39.404Z,21.43
2017-10-26T17:28:08.072Z,18.30
2017-10-26T17:30:36.693Z,23.83
2017-10-26T17:33:04.863Z,21.07
2017-10-26T17:35:32.864Z,22.93
2017-10-26T17:38:01.657Z,21.80
2017-10-26T17:40:30.507Z,14.70
2017-10-26T17:42:58.559Z,18.43
2017-10-26T17:45:26.580Z,19.50
2017-10-26T17:47:55.514Z,15.63
2017-10-26T17:50:23.528Z,16.97
2017-10-26T17:52:51.531Z,16.33
2017-10-26T17:55:20.399Z,18.80
2017-10-26T17:57:48.466Z,14.63
2017-10-26T18:00:16.943Z,27.90
2017-10-26T18:02:45.894Z,16.47
2017-10-26T18:05:13.971Z,18.40
2017-10-26T18:07:42.039Z,14.83
2017-10-26T18:10:10.224Z,19.93
2017-10-26T18:12:38.978Z,17.10
2017-10-26T18:15:08.530Z,21.47
2017-10-26T18:17:38.318Z,21.87
2017-10-26T18:20:06.315Z,20.40
2017-10-26T18:22:34.362Z,21.33
2017-10-26T18:25:02.514Z,14.23
2017-10-26T18:27:31.822Z,22.30
2017-10-26T18:30:01.340Z,22.27
2017-10-26T18:32:29.510Z,16.70
2017-10-26T18:34:57.487Z,25.37
2017-10-26T18:37:25.483Z,24.53
2017-10-26T18:39:53.634Z,19.77
2017-10-26T18:42:21.615Z,26.03
2017-10-26T18:44:50.178Z,24.30
2017-10-26T18:47:19.623Z,18.37
2017-10-26T18:49:48.072Z,22.10
2017-10-26T18:52:16.945Z,20.00
2017-10-26T18:54:45.834Z,18.83
2017-10-26T18:57:15.114Z,22.80
2017-10-26T18:59:43.540Z,18.23
2017-10-26T19:02:12.183Z,16.83
2017-10-26T19:04:40.783Z,20.00
2017-10-26T19:07:09.586Z,25.77
2017-10-26T19:09:38.512Z,27.03
2017-10-26T19:12:07.214Z,20.23
2017-10-26T19:14:35.819Z,23.70
2017-10-26T19:17:04.542Z,22.90
2017-10-26T19:19:33.783Z,23.30
2017-10-26T19:22:01.768Z,21.17
2017-10-26T19:24:29.896Z,25.60
2017-10-26T19:26:57.934Z,21.50
2017-10-26T19:29:25.972Z,18.50
2017-10-26T19:31:54.634Z,20.50
2017-10-26T19:34:22.675Z,20.33
2017-10-26T19:36:51.420Z,21.30
2017-10-26T19:39:19.606Z,21.67
2017-10-26T19:41:47.607Z,24.23
2017-10-26T19:44:25.774Z,19.53
2017-10-26T19:46:55.265Z,20.50
2017-10-26T19:49:23.765Z,19.60
2017-10-26T19:51:52.585Z,20.17
2017-10-26T19:54:20.575Z,20.17
2017-10-26T19:56:49.350Z,21.47
2017-10-26T19:59:17.932Z,20.93
2017-10-26T20:01:46.676Z,19.80
2017-10-26T20:04:15.184Z,18.43
2017-10-26T20:06:43.821Z,19.67
2017-10-26T20:09:12.609Z,21.00
2017-10-26T20:11:41.423Z,26.70
2017-10-26T20:14:09.598Z,19.53
2017-10-26T20:16:38.363Z,21.90
2017-10-26T20:19:07.515Z,26.53
2017-10-26T20:21:35.678Z,21.80
2017-10-26T20:24:03.744Z,21.83
2017-10-26T20:26:31.731Z,25.00
2017-10-26T20:29:00.511Z,18.53
2017-10-26T20:31:28.916Z,19.40
2017-10-26T20:33:57.756Z,16.37
2017-10-26T20:36:26.057Z,21.33
2017-10-26T20:38:54.087Z,18.33
2017-10-26T20:41:22.865Z,19.47
2017-10-26T20:43:51.791Z,17.93
2017-10-26T20:46:20.431Z,22.77
2017-10-26T20:48:49.039Z,20.10
2017-10-26T20:51:24.003Z,20.00
2017-10-26T20:53:57.727Z,24.97
2017-10-26T20:56:31.590Z,19.10
2017-10-26T20:59:06.285Z,27.10
2017-10-26T21:01:40.347Z,21.93
2017-10-26T21:04:27.285Z,23.03
2017-10-26T21:06:56.976Z,20.70
2017-10-26T21:09:25.819Z,19.23
2017-10-26T21:11:59.408Z,17.97
2017-10-26T21:14:28.493Z,24.67
2017-10-26T21:16:57.075Z,19.77
2017-10-26T21:19:25.707Z,20.47
2017-10-26T21:21:54.988Z,28.80
2017-10-26T21:24:23.561Z,23.80
2017-10-26T21:26:51.606Z,25.00
2017-10-26T21:29:19.654Z,20.07
2017-10-26T21:31:49.074Z,24.33
2017-10-26T21:34:17.106Z,20.20
2017-10-26T21:36:45.683Z,20.20
2017-10-26T21:39:14.238Z,20.73
2017-10-26T21:41:42.244Z,29.17
2017-10-26T21:44:10.294Z,25.60
2017-10-26T21:46:38.916Z,19.63
2017-10-26T21:49:08.091Z,18.90
2017-10-26T21:51:36.767Z,22.80
2017-10-26T21:54:05.626Z,22.20
2017-10-26T21:56:33.616Z,19.40
2017-10-26T21:59:01.623Z,27.43
2017-10-26T22:01:30.095Z,19.63
2017-10-26T22:03:58.786Z,24.50
2017-10-26T22:06:26.839Z,25.63
2017-10-26T22:08:55.597Z,22.23
2017-10-26T22:11:23.638Z,21.50
2017-10-26T22:13:52.418Z,21.67
2017-10-26T22:16:21.003Z,27.33
2017-10-26T22:18:49.649Z,27.40
2017-10-26T22:21:18.155Z,23.83
2017-10-26T22:23:46.763Z,24.03
2017-10-26T22:26:15.555Z,26.77
2017-10-26T22:28:44.300Z,28.00
2017-10-26T22:31:12.303Z,24.93
2017-10-26T22:33:40.367Z,30.90
2017-10-26T22:36:08.979Z,30.33
2017-10-26T22:38:38.355Z,21.30
2017-10-26T22:41:06.386Z,23.10
2017-10-26T22:43:34.430Z,24.10
2017-10-26T22:46:03.219Z,28.83
2017-10-26T22:48:32.667Z,25.60
2017-10-26T22:51:00.705Z,21.30
2017-10-26T22:53:30.043Z,23.40
2017-10-26T22:55:58.702Z,28.57
2017-10-26T22:58:26.712Z,19.70
2017-10-26T23:00:54.864Z,23.37
2017-10-26T23:03:23.564Z,27.73
2017-10-26T23:05:52.148Z,21.63
2017-10-26T23:08:20.149Z,29.07
2017-10-26T23:10:48.727Z,26.60
2017-10-26T23:13:16.731Z,30.27
2017-10-26T23:15:45.482Z,29.80
2017-10-26T23:18:14.110Z,31.33
2017-10-26T23:20:43.474Z,28.37
2017-10-26T23:23:12.097Z,32.77
2017-10-26T23:25:41.442Z,39.07
2017-10-26T23:28:09.455Z,21.00
2017-10-26T23:30:37.461Z,31.03
2017-10-26T23:33:05.516Z,28.63
2017-10-26T23:35:34.294Z,26.07
2017-10-26T23:38:03.506Z,30.70
2017-10-26T23:40:32.713Z,32.63
2017-10-26T23:43:00.716Z,29.03
2017-10-26T23:45:28.754Z,29.23
2017-10-26T23:47:58.093Z,28.17
2017-10-26T23:50:26.142Z,33.23
2017-10-26T23:52:54.663Z,30.50
2017-10-26T23:55:23.190Z,24.97
2017-10-26T23:57:52.638Z,27.40
